createdAt,value
2018-04-29T00:02:22.082Z,20.50
2018-04-29T00:04:49.664Z,20.50
2018-04-29T00:07:17.226Z,20.50
2018-04-29T00:09:44.796Z,20.40
2018-04-29T00:12:12.380Z,20.40
2018-04-29T00:14:40.692Z,20.40
2018-04-29T00:17:08.277Z,20.40
2018-04-29T00:19:35.865Z,20.40
2018-04-29T00:22:03.414Z,20.40
2018-04-29T00:24:30.962Z,20.40
2018-04-29T00:26:58.516Z,20.40
2018-04-29T00:29:26.065Z,20.40
2018-04-29T00:31:54.419Z,20.40
2018-04-29T00:34:21.969Z,20.30
2018-04-29T00:36:50.367Z,20.40
2018-04-29T00:39:17.859Z,20.30
2018-04-29T00:41:45.401Z,20.40
2018-04-29T00:44:12.946Z,20.40
2018-04-29T00:46:40.491Z,20.40
2018-04-29T00:49:08.071Z,20.30
2018-04-29T00:51:47.465Z,20.40
2018-04-29T00:54:15.814Z,20.30
2018-04-29T00:56:43.344Z,20.30
2018-04-29T00:59:10.897Z,20.30
2018-04-29T01:01:38.437Z,20.30
2018-04-29T01:04:06.780Z,20.30
2018-04-29T01:06:34.377Z,20.20
2018-04-29T01:09:02.718Z,20.30
2018-04-29T01:11:30.293Z,20.20
2018-04-29T01:13:57.859Z,20.30
2018-04-29T01:16:25.433Z,20.30
2018-04-29T01:18:53.760Z,20.30
2018-04-29T01:21:21.341Z,20.20
2018-04-29T01:23:48.892Z,20.20
2018-04-29T01:26:16.462Z,20.30
2018-04-29T01:28:44.012Z,20.30
2018-04-29T01:31:11.580Z,20.20
2018-04-29T01:33:39.127Z,20.20
2018-04-29T01:36:06.669Z,20.20
2018-04-29T01:38:34.238Z,20.20
2018-04-29T01:41:01.794Z,20.20
2018-04-29T01:43:29.435Z,20.20
2018-04-29T01:45:56.984Z,20.20
2018-04-29T01:48:25.330Z,20.20
2018-04-29T01:50:52.877Z,20.20
2018-04-29T01:53:20.709Z,20.20
2018-04-29T01:55:48.275Z,20.20
2018-04-29T01:58:15.827Z,20.20
2018-04-29T02:00:43.377Z,20.20
2018-04-29T02:03:10.964Z,20.20
2018-04-29T02:05:38.502Z,20.20
2018-04-29T02:08:06.045Z,20.20
2018-04-29T02:10:34.376Z,20.20
2018-04-29T02:13:01.916Z,20.10
2018-04-29T02:15:29.478Z,20.20
2018-04-29T02:17:57.014Z,20.20
2018-04-29T02:20:24.594Z,20.20
2018-04-29T02:22:52.151Z,20.10
2018-04-29T02:25:19.692Z,20.10
2018-04-29T02:27:48.019Z,20.10
2018-04-29T02:30:15.590Z,20.10
2018-04-29T02:32:43.153Z,20.10
2018-04-29T02:35:10.709Z,20.10
2018-04-29T02:37:38.274Z,20.10
2018-04-29T02:40:05.832Z,20.10
2018-04-29T02:42:33.387Z,20.10
2018-04-29T02:45:00.938Z,20.10
2018-04-29T02:47:28.486Z,20.10
2018-04-29T02:49:56.059Z,20.10
2018-04-29T02:52:23.620Z,20.00
2018-04-29T02:54:51.196Z,20.00
2018-04-29T02:57:18.742Z,20.00
2018-04-29T02:59:46.311Z,20.00
2018-04-29T03:02:13.867Z,20.00
2018-04-29T03:04:41.441Z,20.00
2018-04-29T03:07:08.995Z,20.00
2018-04-29T03:09:36.549Z,20.00
2018-04-29T03:12:04.116Z,20.00
2018-04-29T03:14:31.679Z,20.00
2018-04-29T03:16:59.235Z,20.00
2018-04-29T03:19:26.763Z,20.00
2018-04-29T03:21:54.334Z,20.00
2018-04-29T03:24:21.897Z,20.00
2018-04-29T03:26:49.473Z,20.00
2018-04-29T03:29:17.031Z,20.00
2018-04-29T03:31:44.584Z,20.00
2018-04-29T03:34:13.162Z,19.90
2018-04-29T03:36:40.725Z,20.00
2018-04-29T03:39:08.265Z,19.90
2018-04-29T03:41:35.813Z,19.90
2018-04-29T03:44:03.361Z,19.90
2018-04-29T03:46:30.899Z,19.90
2018-04-29T03:48:59.215Z,19.90
2018-04-29T03:51:26.765Z,19.90
2018-04-29T03:53:54.334Z,19.90
2018-04-29T03:56:21.866Z,19.90
2018-04-29T04:02:02.696Z,19.90
2018-04-29T04:04:30.290Z,19.80
2018-04-29T04:06:57.837Z,19.80
2018-04-29T04:09:25.411Z,19.80
2018-04-29T04:11:52.962Z,19.80
2018-04-29T04:14:20.540Z,19.80
2018-04-29T04:16:48.074Z,19.80
2018-04-29T04:19:15.631Z,19.80
2018-04-29T04:21:43.199Z,19.80
2018-04-29T04:24:10.780Z,19.80
2018-04-29T04:26:38.314Z,19.80
2018-04-29T04:29:05.846Z,19.80
2018-04-29T04:31:33.404Z,19.80
2018-04-29T04:34:00.960Z,19.80
2018-04-29T04:36:28.521Z,19.80
2018-04-29T04:38:56.089Z,19.80
2018-04-29T04:41:23.651Z,19.80
2018-04-29T04:43:51.201Z,19.80
2018-04-29T04:46:18.746Z,19.80
2018-04-29T04:48:47.051Z,19.80
2018-04-29T04:51:14.593Z,19.80
2018-04-29T04:53:42.150Z,19.90
2018-04-29T04:56:09.696Z,19.90
2018-04-29T04:58:38.024Z,19.90
2018-04-29T05:01:05.578Z,19.90
2018-04-29T05:03:33.145Z,19.90
2018-04-29T05:06:00.706Z,19.90
2018-04-29T05:08:28.284Z,20.00
2018-04-29T05:10:55.844Z,20.00
2018-04-29T05:13:23.374Z,19.90
2018-04-29T05:15:50.932Z,20.00
2018-04-29T05:18:18.517Z,20.00
2018-04-29T05:20:46.095Z,20.00
2018-04-29T05:23:13.685Z,20.00
2018-04-29T05:25:41.999Z,20.00
2018-04-29T05:28:09.541Z,19.90
2018-04-29T05:30:37.105Z,20.00
2018-04-29T05:33:04.660Z,20.00
2018-04-29T05:35:32.237Z,20.00
2018-04-29T05:38:00.553Z,20.00
2018-04-29T05:40:28.092Z,19.90
2018-04-29T05:42:55.668Z,19.90
2018-04-29T05:45:23.204Z,19.90
2018-04-29T05:47:50.765Z,19.90
2018-04-29T05:50:18.292Z,19.90
2018-04-29T05:52:45.842Z,20.00
2018-04-29T05:55:14.159Z,19.90
2018-04-29T05:57:41.692Z,19.90
2018-04-29T06:00:09.246Z,19.80
2018-04-29T06:02:37.574Z,19.60
2018-04-29T06:05:05.139Z,19.50
2018-04-29T06:07:32.687Z,19.40
2018-04-29T06:10:00.215Z,19.40
2018-04-29T06:12:27.800Z,19.30
2018-04-29T06:14:55.341Z,19.20
2018-04-29T06:17:22.897Z,19.20
2018-04-29T06:19:50.456Z,19.10
2018-04-29T06:22:17.996Z,19.10
2018-04-29T06:24:46.326Z,19.00
2018-04-29T06:27:13.872Z,19.00
2018-04-29T06:29:41.450Z,19.00
2018-04-29T06:32:09.008Z,18.90
2018-04-29T06:34:36.557Z,18.80
2018-04-29T06:37:04.908Z,18.80
2018-04-29T06:39:32.459Z,18.80
2018-04-29T06:42:00.803Z,18.80
2018-04-29T06:44:28.344Z,18.80
2018-04-29T06:46:55.957Z,18.90
2018-04-29T06:49:24.346Z,18.90
2018-04-29T06:51:51.952Z,19.00
2018-04-29T06:54:19.627Z,19.00
2018-04-29T06:56:47.177Z,19.00
2018-04-29T06:59:15.716Z,19.10
2018-04-29T07:01:43.280Z,19.10
2018-04-29T07:04:10.826Z,19.10
2018-04-29T07:06:39.164Z,19.10
2018-04-29T07:09:06.704Z,19.00
2018-04-29T07:11:34.250Z,19.10
2018-04-29T07:14:01.988Z,19.00
2018-04-29T07:16:29.575Z,18.90
2018-04-29T07:18:57.176Z,18.80
2018-04-29T07:21:25.506Z,18.70
2018-04-29T07:23:53.108Z,18.60
2018-04-29T07:26:20.774Z,18.60
2018-04-29T07:28:48.419Z,18.50
2018-04-29T07:31:16.711Z,18.40
2018-04-29T07:33:44.243Z,18.40
2018-04-29T07:36:11.816Z,18.40
2018-04-29T07:38:39.368Z,18.40
2018-04-29T07:41:06.961Z,18.40
2018-04-29T07:43:34.521Z,18.40
2018-04-29T07:46:02.299Z,18.50
2018-04-29T07:48:31.191Z,18.60
2018-04-29T07:51:00.788Z,18.90
2018-04-29T07:53:28.362Z,18.80
2018-04-29T07:55:55.926Z,18.90
2018-04-29T07:58:24.266Z,19.20
2018-04-29T08:00:51.988Z,19.10
2018-04-29T08:03:19.455Z,19.40
2018-04-29T08:05:47.015Z,19.60
2018-04-29T08:08:14.633Z,19.80
2018-04-29T08:10:42.206Z,19.70
2018-04-29T08:13:09.764Z,19.70
2018-04-29T08:15:37.380Z,19.70
2018-04-29T08:18:04.909Z,19.80
2018-04-29T08:20:32.447Z,19.80
2018-04-29T08:22:59.982Z,19.70
2018-04-29T08:25:27.560Z,19.70
2018-04-29T08:27:55.109Z,19.60
2018-04-29T08:30:22.668Z,19.60
2018-04-29T08:32:50.223Z,19.60
2018-04-29T08:35:17.778Z,19.60
2018-04-29T08:37:45.755Z,19.70
2018-04-29T08:40:13.302Z,19.70
2018-04-29T08:42:40.872Z,19.60
2018-04-29T08:45:08.446Z,19.60
2018-04-29T08:47:36.032Z,19.60
2018-04-29T08:50:03.646Z,19.60
2018-04-29T08:52:31.200Z,19.70
2018-04-29T08:54:58.769Z,19.70
2018-04-29T08:57:26.343Z,19.80
2018-04-29T08:59:53.900Z,19.80
2018-04-29T09:02:21.483Z,19.90
2018-04-29T09:04:49.048Z,19.90
2018-04-29T09:07:16.644Z,20.00
2018-04-29T09:09:44.190Z,20.00
2018-04-29T09:12:12.976Z,20.20
2018-04-29T09:14:40.560Z,20.20
2018-04-29T09:17:08.145Z,20.40
2018-04-29T09:19:35.724Z,20.60
2018-04-29T09:22:03.272Z,20.60
2018-04-29T09:24:30.844Z,20.70
2018-04-29T09:26:58.391Z,20.70
2018-04-29T09:29:25.941Z,20.80
2018-04-29T09:31:53.513Z,20.90
2018-04-29T09:34:21.056Z,20.90
2018-04-29T09:36:48.611Z,21.00
2018-04-29T09:39:16.167Z,21.00
2018-04-29T09:41:43.723Z,21.10
2018-04-29T09:44:11.277Z,21.20
2018-04-29T09:46:38.860Z,21.30
2018-04-29T09:49:06.411Z,21.40
2018-04-29T09:51:34.008Z,21.60
2018-04-29T09:54:01.546Z,21.80
2018-04-29T09:56:29.096Z,22.00
2018-04-29T09:58:56.661Z,22.20
2018-04-29T10:01:26.074Z,22.30
2018-04-29T10:03:53.639Z,22.40
2018-04-29T10:06:21.192Z,22.50
2018-04-29T10:08:48.752Z,22.60
2018-04-29T10:11:16.286Z,22.70
2018-04-29T10:13:43.892Z,22.80
2018-04-29T10:16:11.444Z,22.90
2018-04-29T10:18:39.017Z,23.00
2018-04-29T10:21:06.588Z,23.00
2018-04-29T10:23:34.153Z,23.00
2018-04-29T10:26:01.722Z,22.90
2018-04-29T10:28:30.068Z,22.80
2018-04-29T10:30:57.622Z,22.80
2018-04-29T10:33:25.165Z,22.80
2018-04-29T10:35:52.716Z,22.80
2018-04-29T10:38:20.283Z,22.80
2018-04-29T10:40:47.874Z,22.90
2018-04-29T10:43:15.426Z,23.00
2018-04-29T10:45:42.982Z,23.10
2018-04-29T10:48:10.556Z,23.10
2018-04-29T10:50:38.113Z,23.00
2018-04-29T10:53:05.693Z,23.00
2018-04-29T10:55:33.245Z,22.80
2018-04-29T10:58:00.820Z,22.80
2018-04-29T11:00:29.165Z,22.60
2018-04-29T11:02:56.726Z,22.60
2018-04-29T11:05:24.292Z,22.50
2018-04-29T11:07:51.840Z,22.50
2018-04-29T11:10:19.392Z,22.50
2018-04-29T11:12:46.954Z,22.50
2018-04-29T11:15:14.515Z,22.50
2018-04-29T11:17:42.057Z,22.50
2018-04-29T11:20:09.644Z,22.60
2018-04-29T11:22:37.190Z,22.60
2018-04-29T11:25:04.746Z,22.50
2018-04-29T11:27:32.321Z,22.50
2018-04-29T11:29:59.865Z,22.40
2018-04-29T11:32:27.428Z,22.30
2018-04-29T11:34:54.973Z,22.20
2018-04-29T11:37:22.516Z,22.20
2018-04-29T11:39:50.845Z,22.30
2018-04-29T11:42:18.409Z,22.20
2018-04-29T11:44:45.973Z,22.30
2018-04-29T11:47:13.511Z,22.20
2018-04-29T11:49:41.072Z,22.20
2018-04-29T11:52:08.618Z,22.10
2018-04-29T11:54:36.155Z,22.00
2018-04-29T11:57:04.500Z,21.80
2018-04-29T11:59:32.063Z,21.80
2018-04-29T12:01:59.699Z,21.80
2018-04-29T12:04:27.172Z,21.80
2018-04-29T12:06:54.733Z,21.80
2018-04-29T12:09:22.259Z,22.00
2018-04-29T12:11:49.839Z,22.00
2018-04-29T12:14:17.366Z,22.10
2018-04-29T12:16:44.932Z,22.10
2018-04-29T12:19:12.502Z,22.10
2018-04-29T12:21:40.043Z,22.10
2018-04-29T12:24:07.575Z,22.20
2018-04-29T12:26:35.144Z,22.30
2018-04-29T12:29:03.454Z,23.50
2018-04-29T12:31:31.020Z,23.50
2018-04-29T12:33:58.584Z,23.50
2018-04-29T12:36:26.141Z,23.50
2018-04-29T12:38:53.674Z,23.60
2018-04-29T12:41:22.003Z,23.50
2018-04-29T12:43:49.564Z,23.50
2018-04-29T12:46:17.111Z,23.40
2018-04-29T12:48:44.680Z,23.30
2018-04-29T12:51:12.224Z,23.20
2018-04-29T12:53:39.768Z,23.10
2018-04-29T12:56:07.320Z,23.10
2018-04-29T12:58:34.864Z,23.10
2018-04-29T13:01:03.167Z,23.40
2018-04-29T13:03:30.747Z,23.40
2018-04-29T13:05:58.287Z,23.80
2018-04-29T13:08:25.842Z,23.80
2018-04-29T13:10:53.387Z,23.90
2018-04-29T13:13:21.716Z,24.00
2018-04-29T13:15:49.281Z,24.00
2018-04-29T13:18:16.833Z,24.10
2018-04-29T13:20:44.384Z,24.10
2018-04-29T13:23:11.931Z,24.00
2018-04-29T13:25:39.478Z,23.90
2018-04-29T13:28:07.034Z,23.90
2018-04-29T13:30:34.586Z,23.70
2018-04-29T13:33:02.882Z,23.60
2018-04-29T13:35:30.447Z,23.60
2018-04-29T13:37:58.027Z,23.60
2018-04-29T13:40:25.571Z,23.60
2018-04-29T13:42:53.121Z,23.50
2018-04-29T13:45:20.683Z,23.50
2018-04-29T13:47:48.233Z,23.50
2018-04-29T13:50:15.783Z,23.40
2018-04-29T13:52:44.116Z,23.30
2018-04-29T13:55:11.695Z,23.30
2018-04-29T13:57:39.226Z,23.30
2018-04-29T14:00:06.781Z,23.30
2018-04-29T14:02:34.324Z,23.20
2018-04-29T14:05:01.910Z,23.20
2018-04-29T14:07:29.453Z,23.20
2018-04-29T14:09:57.004Z,23.20
2018-04-29T14:12:24.559Z,23.20
2018-04-29T14:14:52.129Z,23.20
2018-04-29T14:17:19.663Z,23.20
2018-04-29T14:19:47.980Z,23.00
2018-04-29T14:22:15.565Z,23.00
2018-04-29T14:24:43.126Z,22.90
2018-04-29T14:27:10.673Z,22.70
2018-04-29T14:29:38.218Z,22.60
2018-04-29T14:32:05.802Z,22.50
2018-04-29T14:34:33.395Z,22.40
2018-04-29T14:37:01.737Z,22.20
2018-04-29T14:39:29.283Z,22.20
2018-04-29T14:41:56.828Z,22.20
2018-04-29T14:44:24.401Z,22.10
2018-04-29T14:46:51.959Z,22.10
2018-04-29T14:49:19.600Z,22.00
2018-04-29T14:51:47.162Z,22.00
2018-04-29T14:54:14.724Z,21.90
2018-04-29T14:56:42.275Z,21.90
2018-04-29T14:59:09.816Z,21.90
2018-04-29T15:01:38.142Z,21.80
2018-04-29T15:04:05.688Z,21.80
2018-04-29T15:06:33.272Z,21.80
2018-04-29T15:09:00.824Z,21.70
2018-04-29T15:11:28.367Z,21.70
2018-04-29T15:13:55.928Z,21.70
2018-04-29T15:16:23.468Z,21.60
2018-04-29T15:18:59.579Z,21.50
2018-04-29T15:21:27.106Z,21.50
2018-04-29T15:23:54.634Z,21.50
2018-04-29T15:26:22.217Z,21.50
2018-04-29T15:28:49.782Z,21.50
2018-04-29T15:31:17.342Z,21.50
2018-04-29T15:33:44.910Z,21.40
2018-04-29T15:36:12.453Z,21.40
2018-04-29T15:38:39.990Z,21.40
2018-04-29T15:41:09.659Z,21.40
2018-04-29T15:43:37.473Z,21.40
2018-04-29T15:46:05.907Z,21.50
2018-04-29T15:48:33.463Z,21.40
2018-04-29T15:51:01.009Z,21.50
2018-04-29T15:53:29.921Z,21.60
2018-04-29T15:55:57.775Z,21.60
2018-04-29T15:58:25.339Z,21.50
2018-04-29T16:00:52.997Z,21.50
2018-04-29T16:03:21.341Z,21.50
2018-04-29T16:05:49.741Z,21.60
2018-04-29T16:08:17.342Z,21.50
2018-04-29T16:10:44.921Z,21.60
2018-04-29T16:13:12.701Z,21.60
2018-04-29T16:15:41.172Z,21.60
2018-04-29T16:18:09.714Z,21.60
2018-04-29T16:20:37.598Z,21.60
2018-04-29T16:23:05.191Z,21.60
2018-04-29T16:25:33.515Z,21.70
2018-04-29T16:28:01.167Z,21.60
2018-04-29T16:30:29.601Z,21.70
2018-04-29T16:32:57.271Z,21.70
2018-04-29T16:35:24.868Z,21.70
2018-04-29T16:37:52.446Z,21.70
2018-04-29T16:40:19.998Z,21.70
2018-04-29T16:42:47.694Z,21.70
2018-04-29T16:45:15.261Z,21.80
2018-04-29T16:47:42.813Z,21.80
2018-04-29T16:50:10.384Z,21.80
2018-04-29T16:52:37.967Z,21.80
2018-04-29T16:55:06.330Z,21.80
2018-04-29T16:57:33.877Z,21.70
2018-04-29T17:00:01.423Z,21.80
2018-04-29T17:02:29.091Z,21.80
2018-04-29T17:04:56.595Z,21.80
2018-04-29T17:07:27.683Z,21.80
2018-04-29T17:09:55.228Z,21.80
2018-04-29T17:12:22.861Z,21.80
2018-04-29T17:14:50.457Z,21.80
2018-04-29T17:17:17.987Z,21.80
2018-04-29T17:19:46.327Z,21.70
2018-04-29T17:22:13.873Z,21.70
2018-04-29T17:24:41.417Z,21.70
2018-04-29T17:27:09.011Z,21.80
2018-04-29T17:29:36.707Z,21.80
2018-04-29T17:32:04.266Z,21.70
2018-04-29T17:34:32.589Z,21.70
2018-04-29T17:37:00.172Z,21.70
2018-04-29T17:39:29.185Z,21.70
2018-04-29T17:41:57.512Z,21.70
2018-04-29T17:44:25.837Z,21.70
2018-04-29T17:46:54.173Z,21.80
2018-04-29T17:49:21.873Z,21.70
2018-04-29T17:51:50.201Z,21.70
2018-04-29T17:54:17.799Z,21.70
2018-04-29T17:56:45.375Z,21.70
2018-04-29T17:59:13.751Z,21.70
2018-04-29T18:01:41.301Z,21.70
2018-04-29T18:04:08.894Z,21.70
2018-04-29T18:06:37.349Z,21.70
2018-04-29T18:09:05.676Z,21.70
2018-04-29T18:11:34.243Z,21.60
2018-04-29T18:14:05.107Z,21.70
2018-04-29T18:16:33.425Z,21.70
2018-04-29T18:19:00.998Z,21.70
2018-04-29T18:21:28.837Z,21.60
2018-04-29T18:23:56.428Z,21.70
2018-04-29T18:26:26.010Z,21.70
2018-04-29T18:28:53.644Z,21.60
2018-04-29T18:31:21.422Z,21.70
2018-04-29T18:33:48.968Z,21.70
2018-04-29T18:36:16.845Z,21.60
2018-04-29T18:38:44.412Z,21.70
2018-04-29T18:41:11.961Z,21.60
2018-04-29T18:46:42.417Z,21.60
2018-04-29T18:49:09.962Z,21.60
